Custer, Washington
Current Conditions -  °F | °C
As of 10:53 AM on Thursday 23 Oct 2014 (Local Time) from KBLI Reporting Station
Overcast Overcast  
Wind Chill: 53°   Ceiling: 2300
Heat Index: 53°   Visibility: 7mi
Dew Point: 47°   Wind: 14mph
Humidity: 80%   Direction: 150°SSE
Pressure: 29.71"   Gusts: 22mph
Location:  48.92°N, 122.64°W
Report Text: KBLI 231753Z 15012G19KT 7SM BKN023 BKN038 OVC100 12/08 A2971 RMK AO2 RAE31 SLP069 P0001 60003 T01170083 10128 20111 51013
Loading
Personal Weather Stations






























Interactive Weather Map
Tropical Storm Tracking
New forecast layout! Learn more

10-Day Weather Forecast

Advertisements
Track Severe Weather on mobile